Time;durP1;ratioP1;P1;durP2;ratioP2;P2;SDS_P1;SDS_P2;PMS_P1;PMS_P2;Temp;Humidity;BMP_temperature;BMP_pressure;BME280_temperature;BME280_humidity;BME280_pressure;Samples;Min_cycle;Max_cycle;Signal;HPM_P1;HPM_P2
2022/12/20 06:55:13;;;;;;;21.20;13.80;;;;;;;4.72;100.00;100976.69;4983424;28;20052;-64
2022/12/20 06:57:40;;;;;;;25.63;14.82;;;;;;;4.71;100.00;100988.03;4984692;28;20125;-64
2022/12/20 07:00:11;;;;;;;20.50;13.85;;;;;;;4.72;100.00;100981.91;4986542;28;20046;-68
2022/12/20 07:02:38;;;;;;;21.40;13.38;;;;;;;4.75;100.00;100974.00;4983405;28;20057;-64
2022/12/20 07:05:07;;;;;;;24.67;14.52;;;;;;;4.82;100.00;100974.69;4985677;28;20081;-65
2022/12/20 07:07:38;;;;;;;24.05;12.90;;;;;;;4.83;100.00;100968.56;4981871;28;20479;-64
2022/12/20 07:10:11;;;;;;;23.90;13.82;;;;;;;4.85;100.00;100973.72;4982761;28;20054;-64
2022/12/20 07:12:39;;;;;;;20.85;13.65;;;;;;;4.89;100.00;100975.34;4979437;28;20051;-65
2022/12/20 07:15:28;;;;;;;24.08;13.85;;;;;;;4.92;100.00;100978.72;4974992;28;20180;-63
2022/12/20 07:17:55;;;;;;;19.58;12.90;;;;;;;4.92;100.00;100978.72;4976482;28;20134;-64
2022/12/20 07:20:22;;;;;;;20.45;13.93;;;;;;;4.97;100.00;100978.59;4976670;28;20082;-64
2022/12/20 07:22:49;;;;;;;21.27;13.27;;;;;;;4.99;100.00;100981.97;4984788;28;20121;-64
2022/12/20 07:25:16;;;;;;;22.90;14.30;;;;;;;5.02;100.00;100981.91;4987653;28;20078;-63
2022/12/20 07:27:50;;;;;;;23.70;14.73;;;;;;;5.04;100.00;100994.00;4985607;28;20125;-64
2022/12/20 07:30:18;;;;;;;23.92;13.93;;;;;;;5.03;100.00;100992.28;4981009;28;20085;-64
2022/12/20 07:32:46;;;;;;;24.77;13.95;;;;;;;5.00;100.00;100989.78;4985125;28;20082;-63
2022/12/20 07:35:14;;;;;;;22.00;12.60;;;;;;;5.02;100.00;101006.25;4986168;28;20078;-64
2022/12/20 07:37:42;;;;;;;21.38;13.68;;;;;;;5.01;100.00;101001.06;4990624;28;20054;-64
2022/12/20 07:40:10;;;;;;;27.77;16.73;;;;;;;4.98;100.00;101002.00;4984062;28;20049;-63
2022/12/20 07:42:39;;;;;;;23.05;15.15;;;;;;;5.02;100.00;101008.84;4983225;28;20077;-64
2022/12/20 07:45:14;;;;;;;20.58;13.57;;;;;;;5.04;100.00;101009.66;4984240;28;20054;-64
2022/12/20 07:47:42;;;;;;;22.55;15.00;;;;;;;5.08;100.00;101019.09;4993517;28;20060;-64
2022/12/20 07:50:10;;;;;;;24.42;15.27;;;;;;;5.08;100.00;101015.63;4988457;28;20129;-64
2022/12/20 07:52:39;;;;;;;22.73;15.98;;;;;;;5.05;100.00;101013.97;4987165;28;20418;-63
2022/12/20 07:55:07;;;;;;;26.17;15.48;;;;;;;5.06;100.00;101013.06;4999830;23;20042;-89
2022/12/20 07:57:54;;;;;;;25.75;16.23;;;;;;;5.09;100.00;101012.16;4967796;28;20042;-88
2022/12/20 08:00:23;;;;;;;22.70;14.52;;;;;;;5.14;100.00;101014.63;4999825;28;20038;-89
2022/12/20 08:02:55;;;;;;;21.42;14.65;;;;;;;5.18;100.00;101008.38;4966935;28;20051;-87
2022/12/20 08:05:24;;;;;;;22.85;14.13;;;;;;;5.21;100.00;101003.06;4979572;28;20042;-88
2022/12/20 08:07:55;;;;;;;22.55;15.20;;;;;;;5.19;100.00;101010.09;4981631;28;20297;-87
2022/12/20 08:10:26;;;;;;;25.63;15.13;;;;;;;5.21;100.00;101003.06;4978566;28;20034;-87
2022/12/20 08:12:54;;;;;;;27.38;15.48;;;;;;;5.22;100.00;101012.59;4977585;28;20089;-87
2022/12/20 08:15:22;;;;;;;25.08;15.13;;;;;;;5.27;100.00;101000.28;4989328;28;20052;-87
2022/12/20 08:17:50;;;;;;;23.85;15.40;;;;;;;5.26;100.00;100996.78;4992278;28;20116;-87
2022/12/20 08:20:17;;;;;;;24.02;14.82;;;;;;;5.32;100.00;100995.78;4977318;28;20042;-88
2022/12/20 08:22:48;;;;;;;27.65;15.45;;;;;;;5.29;100.00;101001.94;4995794;28;20034;-88
2022/12/20 08:25:15;;;;;;;22.77;14.25;;;;;;;5.27;100.00;101006.38;4977755;28;20139;-87
2022/12/20 08:27:43;;;;;;;26.23;14.35;;;;;;;5.30;100.00;100998.41;4999939;28;20057;-88
2022/12/20 08:30:11;;;;;;;24.60;15.13;;;;;;;5.33;100.00;101005.31;4964661;28;20034;-87
2022/12/20 08:32:38;;;;;;;22.98;14.55;;;;;;;5.36;100.00;101005.22;4979817;28;20034;-87
2022/12/20 08:35:07;;;;;;;22.88;15.30;;;;;;;5.36;100.00;101000.00;4982376;28;20356;-87
2022/12/20 08:37:34;;;;;;;26.85;14.82;;;;;;;5.38;100.00;100994.72;4970260;28;20234;-87
2022/12/20 08:40:02;;;;;;;24.10;16.52;;;;;;;5.40;100.00;100995.50;4986171;28;20030;-87
2022/12/20 08:42:29;;;;;;;23.95;15.63;;;;;;;5.34;100.00;100986.97;4986952;28;20044;-87
2022/12/20 08:45:00;;;;;;;25.25;16.38;;;;;;;5.37;100.00;100973.00;4976589;28;20044;-87
2022/12/20 08:47:28;;;;;;;24.13;16.40;;;;;;;5.39;100.00;100979.00;4995832;28;20365;-87
2022/12/20 08:49:56;;;;;;;24.08;15.77;;;;;;;5.39;100.00;100983.38;4974590;28;20095;-90
2022/12/20 08:52:23;;;;;;;23.45;15.93;;;;;;;5.41;100.00;100985.03;4982446;28;20392;-88
2022/12/20 08:54:51;;;;;;;24.30;16.20;;;;;;;5.46;100.00;100990.97;4995577;28;20388;-87
2022/12/20 08:57:19;;;;;;;26.05;15.77;;;;;;;5.46;100.00;100996.19;4986718;28;20040;-87
2022/12/20 08:59:46;;;;;;;23.02;15.98;;;;;;;5.45;100.00;100993.59;4967948;28;20038;-87
2022/12/20 09:02:13;;;;;;;28.25;15.88;;;;;;;5.49;100.00;100988.28;4991270;28;20095;-87
2022/12/20 09:04:43;;;;;;;24.65;16.10;;;;;;;5.57;100.00;100985.38;4979172;28;20033;-86
2022/12/20 09:07:11;;;;;;;24.48;16.63;;;;;;;5.57;100.00;100994.06;4984763;28;20085;-88
2022/12/20 09:09:38;;;;;;;25.35;15.80;;;;;;;5.58;100.00;100987.09;4972026;28;20362;-90
2022/12/20 09:12:06;;;;;;;28.27;16.75;;;;;;;5.58;100.00;100981.88;4984174;28;20068;-88
2022/12/20 09:14:33;;;;;;;25.05;15.75;;;;;;;5.59;100.00;100980.97;4968448;28;20045;-90
2022/12/20 09:17:01;;;;;;;23.80;16.95;;;;;;;5.68;100.00;100974.59;5001843;28;20030;-87
2022/12/20 09:19:29;;;;;;;25.00;15.27;;;;;;;5.68;100.00;100980.69;4985677;28;20125;-88
2022/12/20 09:21:57;;;;;;;25.00;16.10;;;;;;;5.69;100.00;100987.59;4992563;28;20033;-87
2022/12/20 09:24:24;;;;;;;26.33;15.32;;;;;;;5.69;100.00;100979.78;4988593;28;20050;-88
2022/12/20 09:26:52;;;;;;;28.63;16.75;;;;;;;5.74;100.00;100977.84;4989901;28;20042;-87
2022/12/20 09:29:19;;;;;;;27.38;16.23;;;;;;;5.74;100.00;100969.16;4980627;28;20084;-90
2022/12/20 09:31:54;;;;;;;23.87;16.77;;;;;;;5.79;100.00;100965.50;4962682;28;20045;-88
2022/12/20 09:34:22;;;;;;;26.67;16.83;;;;;;;5.83;100.00;100982.78;5003565;28;20041;-89
2022/12/20 09:36:49;;;;;;;23.45;14.70;;;;;;;5.91;100.00;100960.78;4965926;28;20054;-87
2022/12/20 09:39:18;;;;;;;28.67;17.45;;;;;;;5.90;100.00;100965.16;4975101;28;20063;-91
2022/12/20 09:41:45;;;;;;;23.77;15.95;;;;;;;5.89;100.00;100952.97;5008548;28;20037;-91
2022/12/20 09:44:18;;;;;;;26.30;16.10;;;;;;;5.98;100.00;100963.13;5006526;28;20034;-91
2022/12/20 09:47:01;;;;;;;25.13;15.88;;;;;;;6.06;100.00;100952.41;5022521;28;20026;-87
2022/12/20 09:49:42;;;;;;;28.25;16.92;;;;;;;6.23;100.00;100963.13;4980314;28;20076;-88
2022/12/20 09:52:39;;;;;;;29.75;15.63;;;;;;;6.29;100.00;100969.91;4984284;28;20037;-87
2022/12/20 09:55:10;;;;;;;24.52;15.30;;;;;;;6.33;100.00;100951.44;4960801;28;20042;-88
2022/12/20 09:58:01;;;;;;;24.52;16.38;;;;;;;6.42;100.00;100954.63;4976459;28;20433;-87
2022/12/20 10:00:29;;;;;;;21.15;14.43;;;;;;;6.43;100.00;100958.94;4979661;28;20041;-87
2022/12/20 10:02:57;;;;;;;24.83;17.15;;;;;;;6.46;100.00;100962.31;4983601;28;20050;-88
2022/12/20 10:05:54;;;;;;;22.35;14.88;;;;;;;6.49;100.00;100963.97;4988935;28;20104;-88
2022/12/20 10:08:45;;;;;;;24.08;15.68;;;;;;;6.51;100.00;100965.59;4991953;28;20086;-87
2022/12/20 10:11:42;;;;;;;23.45;15.23;;;;;;;6.47;100.00;100964.00;5012210;28;20037;-88
2022/12/20 10:14:33;;;;;;;24.70;15.35;;;;;;;6.52;100.00;100956.84;5016533;28;20041;-90
2022/12/20 10:17:09;;;;;;;23.67;14.70;;;;;;;6.56;100.00;100966.28;5019580;28;20034;-91
2022/12/20 10:19:59;;;;;;;24.50;14.10;;;;;;;6.59;100.00;100960.94;4992989;28;20325;-89
2022/12/20 10:22:45;;;;;;;27.33;14.50;;;;;;;6.52;100.00;100962.06;5023874;28;20110;-91
2022/12/20 10:25:22;;;;;;;25.23;14.65;;;;;;;6.57;100.00;100965.41;4988312;28;20100;-88
2022/12/20 10:27:53;;;;;;;22.45;14.32;;;;;;;6.59;100.00;100958.34;4974223;28;20034;-88
2022/12/20 10:30:23;;;;;;;20.58;13.95;;;;;;;6.60;100.00;100949.56;4979930;28;20042;-87
2022/12/20 10:32:53;;;;;;;25.98;14.85;;;;;;;6.55;100.00;100941.03;4982128;28;20049;-84
2022/12/20 10:35:32;;;;;;;28.15;14.70;;;;;;;6.53;100.00;100942.88;5018024;28;20064;-89
2022/12/20 10:38:11;;;;;;;22.05;14.32;;;;;;;6.55;100.00;100927.13;5000192;28;20034;-91
2022/12/20 10:40:48;;;;;;;23.90;14.68;;;;;;;6.59;100.00;100921.72;4983962;28;20460;-88
2022/12/20 10:43:39;;;;;;;;;;;;;;;6.60;100.00;100906.88;4990759;28;20210;-87
2022/12/20 10:46:07;;;;;;;22.02;14.27;;;;;;;6.67;100.00;100900.50;4979791;28;19959;-88
2022/12/20 10:48:38;;;;;;;23.02;14.45;;;;;;;6.77;100.00;100904.47;4970944;28;20125;-88
2022/12/20 10:51:08;;;;;;;22.60;14.52;;;;;;;6.85;100.00;100898.94;4970850;28;20041;-87
2022/12/20 10:53:50;;;;;;;24.42;14.70;;;;;;;6.93;100.00;100889.00;5006398;28;20104;-86
2022/12/20 10:56:18;;;;;;;19.00;13.43;;;;;;;7.04;100.00;100888.59;4978192;28;20037;-89
2022/12/20 10:59:16;;;;;;;19.10;12.32;;;;;;;7.17;100.00;100886.34;5016503;28;20066;-88
2022/12/20 11:01:45;;;;;;;21.33;14.25;;;;;;;7.18;100.00;100883.66;4966969;28;20049;-86
2022/12/20 11:04:28;;;;;;;20.75;12.52;;;;;;;7.21;100.00;100870.44;4981287;28;20045;-87
2022/12/20 11:06:58;;;;;;;21.75;12.77;;;;;;;7.26;100.00;100871.09;4999975;28;20129;-87
2022/12/20 11:09:29;;;;;;;24.40;13.32;;;;;;;7.34;100.00;100868.16;4984379;28;20096;-85
2022/12/20 11:12:10;;;;;;;21.85;13.00;;;;;;;7.28;100.00;100879.72;4964799;28;20080;-87
2022/12/20 11:14:39;;;;;;;19.55;12.60;;;;;;;7.24;100.00;100854.59;4984721;28;20030;-88
2022/12/20 11:17:19;;;;;;;19.42;12.32;;;;;;;7.24;100.00;100862.44;4981464;28;20045;-87
2022/12/20 11:20:13;;;;;;;19.80;12.30;;;;;;;7.20;100.00;100847.75;4995416;28;20132;-88
2022/12/20 11:22:55;;;;;;;20.40;12.70;;;;;;;7.27;100.00;100830.91;4967296;28;20049;-86
2022/12/20 11:25:42;;;;;;;19.23;13.00;;;;;;;7.31;100.00;100842.94;5004584;28;20108;-86
2022/12/20 11:28:20;;;;;;;20.15;12.80;;;;;;;7.33;100.00;100837.63;5016707;28;20061;-85
2022/12/20 11:31:05;;;;;;;24.08;13.82;;;;;;;7.34;100.00;100839.38;4989559;28;20057;-91
2022/12/20 11:33:54;;;;;;;19.95;12.98;;;;;;;7.37;100.00;100844.44;4997640;28;20104;-90
2022/12/20 11:36:59;;;;;;;23.10;13.85;;;;;;;7.43;100.00;100827.63;4999334;28;20053;-87
2022/12/20 11:39:45;;;;;;;21.90;13.15;;;;;;;7.43;99.54;100832.84;4994208;28;20041;-91
2022/12/20 11:42:24;;;;;;;21.35;13.30;;;;;;;7.43;99.78;100825.00;5016871;28;20088;-88
2022/12/20 11:45:27;;;;;;;23.42;14.27;;;;;;;7.48;100.00;100821.28;4995835;28;20050;-87
2022/12/20 11:48:14;;;;;;;19.80;13.07;;;;;;;7.56;99.00;100821.78;4974546;28;20045;-87
2022/12/20 11:51:02;;;;;;;24.35;14.02;;;;;;;7.56;98.95;100810.47;4971566;28;20523;-85
2022/12/20 11:53:52;;;;;;;26.70;13.07;;;;;;;7.55;99.04;100814.84;4998374;28;20072;-86
2022/12/20 11:56:36;;;;;;;20.00;12.93;;;;;;;7.56;98.66;100798.19;4994142;28;20117;-86
2022/12/20 11:59:44;;;;;;;18.55;12.80;;;;;;;7.57;99.01;100810.41;4967398;28;20029;-87
2022/12/20 12:02:22;;;;;;;21.30;12.18;;;;;;;7.59;97.69;100816.41;4996826;28;20046;-87
2022/12/20 12:04:58;;;;;;;18.98;12.57;;;;;;;7.56;97.83;100813.06;4957168;28;20034;-87
2022/12/20 12:07:29;;;;;;;20.27;12.80;;;;;;;7.55;98.13;100807.00;4987719;28;20522;-87
2022/12/20 12:09:58;;;;;;;24.77;13.60;;;;;;;7.60;97.73;100812.03;4960822;28;20432;-87
2022/12/20 12:13:04;;;;;;;22.23;13.40;;;;;;;7.62;98.14;100810.22;4984285;28;20092;-87
2022/12/20 12:15:53;;;;;;;24.00;12.52;;;;;;;7.63;98.12;100809.28;4978066;28;20092;-87
2022/12/20 12:18:23;;;;;;;22.67;13.48;;;;;;;7.60;97.17;100805.00;4971130;28;20042;-88
2022/12/20 12:20:58;;;;;;;19.60;12.23;;;;;;;7.65;97.40;100802.19;4992269;28;20030;-87
2022/12/20 12:23:50;;;;;;;17.88;12.60;;;;;;;7.80;97.95;100803.31;5007500;28;20046;-88
2022/12/20 12:26:26;;;;;;;20.27;13.45;;;;;;;7.92;97.70;100773.91;5020910;28;20376;-88
2022/12/20 12:28:59;;;;;;;18.85;12.48;;;;;;;8.01;96.28;100781.34;4986838;28;20392;-89
2022/12/20 12:32:01;;;;;;;21.35;12.43;;;;;;;8.04;96.00;100775.97;5004417;28;20473;-88
2022/12/20 12:34:57;;;;;;;19.15;12.05;;;;;;;8.00;96.24;100779.66;4991167;28;20500;-87
2022/12/20 12:37:27;;;;;;;21.00;12.40;;;;;;;7.95;95.95;100786.03;4982805;28;20050;-88
2022/12/20 12:40:27;;;;;;;21.58;12.40;;;;;;;7.94;96.39;100766.84;5008849;28;20091;-87
2022/12/20 12:43:04;;;;;;;20.88;11.45;;;;;;;7.98;96.18;100767.56;4999615;28;20037;-88
2022/12/20 12:45:42;;;;;;;19.35;12.23;;;;;;;7.97;96.27;100771.06;4971301;28;20070;-88
2022/12/20 12:48:26;;;;;;;18.27;12.68;;;;;;;7.99;96.30;100764.84;4988979;28;20033;-88
2022/12/20 12:50:56;;;;;;;21.02;12.77;;;;;;;8.00;96.28;100760.44;4988498;28;20057;-90
2022/12/20 12:53:42;;;;;;;18.77;12.15;;;;;;;8.00;96.33;100755.22;4980525;28;20054;-88
2022/12/20 12:56:24;;;;;;;18.08;11.85;;;;;;;7.95;95.96;100739.69;4999481;28;20046;-87
2022/12/20 12:59:19;;;;;;;20.92;12.13;;;;;;;7.98;96.14;100742.19;4988540;28;20041;-87
2022/12/20 13:01:54;;;;;;;16.95;11.90;;;;;;;7.98;95.80;100731.69;4961092;28;20459;-88
2022/12/20 13:04:25;;;;;;;19.00;11.43;;;;;;;8.03;95.90;100737.56;5008215;28;20504;-89
2022/12/20 13:06:59;;;;;;;19.23;11.27;;;;;;;8.06;95.93;100739.19;5006798;28;20045;-89
2022/12/20 13:09:26;;;;;;;19.65;12.80;;;;;;;8.05;95.31;100732.25;4987153;28;20050;-89
2022/12/20 13:11:56;;;;;;;18.42;12.07;;;;;;;8.11;95.10;100732.81;5021085;28;20053;-88
2022/12/20 13:14:28;;;;;;;18.85;11.55;;;;;;;8.11;94.64;100727.59;4982855;28;20124;-90
2022/12/20 13:17:04;;;;;;;17.38;11.02;;;;;;;8.09;93.65;100737.28;4983050;28;20042;-87
2022/12/20 13:19:51;;;;;;;17.02;12.02;;;;;;;8.05;93.82;100735.72;4989870;28;20046;-88
2022/12/20 13:22:22;;;;;;;19.27;11.95;;;;;;;7.94;92.97;100734.53;4963230;28;20533;-90
2022/12/20 13:25:02;;;;;;;21.05;12.68;;;;;;;7.84;93.57;100732.34;4986272;28;20053;-87
2022/12/20 13:27:40;;;;;;;17.35;11.75;;;;;;;7.91;93.69;100738.13;4979208;28;20046;-89
2022/12/20 13:30:10;;;;;;;21.20;12.52;;;;;;;7.91;93.40;100740.75;4979705;28;20489;-86
2022/12/20 13:32:47;;;;;;;17.98;11.32;;;;;;;7.85;91.87;100734.03;4978293;28;20048;-86
2022/12/20 13:35:24;;;;;;;19.15;12.57;;;;;;;7.87;92.76;100741.81;4979581;28;20058;-87
2022/12/20 13:38:04;;;;;;;18.70;12.05;;;;;;;7.83;92.39;100743.75;4999549;28;20085;-88
2022/12/20 13:40:55;;;;;;;19.48;12.95;;;;;;;7.81;92.54;100747.34;4993407;28;20373;-85
2022/12/20 13:43:22;;;;;;;18.23;12.18;;;;;;;7.71;91.82;100746.91;4967485;28;20107;-85
2022/12/20 13:45:56;;;;;;;17.02;11.52;;;;;;;7.65;92.54;100744.53;5019774;28;20062;-88
2022/12/20 13:48:40;;;;;;;17.65;11.80;;;;;;;7.69;92.35;100733.00;5015383;28;20504;-85
2022/12/20 13:51:09;;;;;;;22.25;12.48;;;;;;;7.73;91.66;100718.00;4976449;28;20054;-86
2022/12/20 13:53:37;;;;;;;21.40;12.15;;;;;;;7.66;91.14;100730.56;4969994;28;20481;-85
2022/12/20 13:56:26;;;;;;;17.55;11.93;;;;;;;7.66;91.91;100727.94;4994892;28;20045;-86
2022/12/20 13:58:56;;;;;;;21.95;11.95;;;;;;;7.60;91.36;100734.28;4985443;28;20068;-86
2022/12/20 14:01:24;;;;;;;19.25;12.65;;;;;;;7.61;90.98;100728.13;4979238;28;20042;-85
2022/12/20 14:03:52;;;;;;;23.85;12.55;;;;;;;7.60;90.98;100754.38;4979546;28;20038;-87
2022/12/20 14:06:21;;;;;;;23.40;12.90;;;;;;;7.53;90.36;100732.03;4984004;28;20049;-86
2022/12/20 14:08:53;;;;;;;19.85;12.30;;;;;;;7.53;90.69;100743.34;4971765;28;20061;-85
2022/12/20 14:11:25;;;;;;;20.05;12.55;;;;;;;7.51;90.98;100732.06;4986919;28;20038;-86
2022/12/20 14:13:58;;;;;;;22.30;13.27;;;;;;;7.53;90.40;100732.88;4964683;28;20273;-87
2022/12/20 15:33:14;;;;;;;21.77;13.77;;;;;;;7.12;87.48;100663.16;5008177;28;20049;-86
2022/12/20 16:07:12;;;;;;;22.50;14.15;;;;;;;6.83;88.12;100641.69;4939462;29;20086;-92
2022/12/20 16:18:40;;;;;;;23.48;14.27;;;;;;;6.89;87.73;100630.09;5018465;28;20037;-90
2022/12/20 17:47:02;;;;;;;30.27;17.00;;;;;;;6.18;88.27;100627.00;5024683;23;20121;-64
2022/12/20 19:05:53;;;;;;;26.58;17.20;;;;;;;6.40;87.97;100582.53;4981121;28;20048;-65
2022/12/20 19:08:21;;;;;;;28.10;17.20;;;;;;;6.43;88.44;100571.91;4983116;28;20046;-65
